Time;durP1;ratioP1;P1;durP2;ratioP2;P2;SDS_P1;SDS_P2;PMS_P1;PMS_P2;Temp;Humidity;BMP_temperature;BMP_pressure;BME280_temperature;BME280_humidity;BME280_pressure;Samples;Min_cycle;Max_cycle;Signal;HPM_P1;HPM_P2
2023/09/13 00:00:46;;;;;;;3.23;2.80;;;;;;;19.00;98.11;101206.38;4996328;28;20463;-89
2023/09/13 00:03:11;;;;;;;3.53;2.70;;;;;;;18.97;97.96;101202.97;4995936;28;20034;-88
2023/09/13 00:05:36;;;;;;;4.70;3.00;;;;;;;18.95;98.07;101196.91;4996261;28;20096;-89
2023/09/13 00:08:02;;;;;;;3.17;2.63;;;;;;;18.95;98.21;101196.91;4995920;28;20026;-89
2023/09/13 00:10:27;;;;;;;4.17;2.80;;;;;;;18.94;98.46;101207.50;4996521;28;20023;-88
2023/09/13 00:12:53;;;;;;;3.90;2.73;;;;;;;18.88;98.42;101194.59;4996277;28;20050;-89
2023/09/13 00:15:18;;;;;;;4.53;2.93;;;;;;;18.91;98.71;101197.09;4995453;28;20026;-89
2023/09/13 00:17:43;;;;;;;4.77;2.73;;;;;;;18.88;98.37;101194.59;4996309;28;20084;-88
2023/09/13 00:20:09;;;;;;;3.70;2.80;;;;;;;18.83;98.42;101192.16;4995708;28;20026;-89
2023/09/13 00:22:34;;;;;;;4.27;3.03;;;;;;;18.81;98.35;101197.50;4995423;28;20046;-89
2023/09/13 00:25:00;;;;;;;4.53;3.00;;;;;;;18.79;98.67;101191.44;4995971;28;20042;-89
2023/09/13 00:27:25;;;;;;;3.80;2.70;;;;;;;18.78;99.73;101197.63;4995957;28;20030;-88
2023/09/13 00:29:50;;;;;;;4.27;2.53;;;;;;;18.75;100.00;101197.75;4994940;28;20038;-88
2023/09/13 00:32:16;;;;;;;3.20;2.60;;;;;;;18.77;99.23;101197.72;4995416;28;20023;-89
2023/09/13 00:34:41;;;;;;;2.37;2.17;;;;;;;18.75;99.67;101202.19;4995622;28;20029;-89
2023/09/13 00:37:06;;;;;;;2.20;2.00;;;;;;;18.65;99.67;101191.19;4989518;28;20101;-88
2023/09/13 00:39:44;;;;;;;2.70;2.27;;;;;;;18.66;100.00;101195.53;4995841;28;20072;-89
2023/09/13 00:42:09;;;;;;;2.13;1.90;;;;;;;18.66;99.88;101211.31;4994983;28;20029;-88
2023/09/13 00:44:34;;;;;;;2.53;2.17;;;;;;;18.57;100.00;101188.94;4995201;28;20030;-88
2023/09/13 00:46:59;;;;;;;2.27;2.07;;;;;;;18.61;100.00;101202.78;4995515;28;20030;-89
2023/09/13 00:49:25;;;;;;;4.60;3.00;;;;;;;18.58;100.00;101195.88;4994407;28;20033;-89
2023/09/13 00:51:53;;;;;;;3.95;2.90;;;;;;;18.52;100.00;101193.53;4995363;28;20061;-89
2023/09/13 00:54:22;;;;;;;3.15;2.42;;;;;;;18.53;100.00;101187.34;4994995;28;20034;-89
2023/09/13 00:56:47;;;;;;;3.90;2.70;;;;;;;18.48;100.00;101194.56;4994510;28;20491;-89
2023/09/13 00:59:22;;;;;;;3.13;2.30;;;;;;;18.42;100.00;101192.22;4999318;28;20053;-88
2023/09/13 01:01:47;;;;;;;3.60;2.30;;;;;;;18.31;100.00;101177.75;5002332;28;20077;-88
2023/09/13 01:04:13;;;;;;;2.97;2.40;;;;;;;18.33;100.00;101175.06;4994755;28;20479;-89
2023/09/13 01:06:38;;;;;;;4.20;2.80;;;;;;;18.26;100.00;101178.88;4994650;28;20077;-88
2023/09/13 01:09:04;;;;;;;4.33;2.80;;;;;;;18.30;100.00;101189.19;4994884;28;20035;-88
2023/09/13 01:11:30;;;;;;;3.80;2.60;;;;;;;18.28;100.00;101182.28;4994299;28;20022;-88
2023/09/13 01:13:55;;;;;;;2.97;2.40;;;;;;;18.25;100.00;101192.91;4994471;28;20100;-88
2023/09/13 01:16:41;;;;;;;3.33;2.27;;;;;;;18.22;100.00;101193.91;4994435;28;20038;-88
2023/09/13 01:19:34;;;;;;;2.92;2.40;;;;;;;18.20;100.00;101185.25;4994299;28;20443;-88
2023/09/13 01:22:21;;;;;;;2.97;2.45;;;;;;;18.17;100.00;101187.97;4994695;28;20034;-88
2023/09/13 01:25:05;;;;;;;3.28;2.10;;;;;;;18.13;100.00;101182.00;4994008;28;20038;-88
2023/09/13 01:27:47;;;;;;;3.28;2.25;;;;;;;18.12;100.00;101189.97;4994757;28;20387;-88
2023/09/13 01:30:14;;;;;;;3.75;2.55;;;;;;;18.09;100.00;101188.28;4994592;28;20028;-89
2023/09/13 01:32:43;;;;;;;5.53;3.20;;;;;;;18.05;100.00;101192.81;4993891;28;20034;-89
2023/09/13 01:35:11;;;;;;;4.93;3.10;;;;;;;18.03;100.00;101192.03;4993991;28;20026;-88
2023/09/13 01:37:37;;;;;;;5.30;3.30;;;;;;;18.01;100.00;101196.47;4994201;28;20077;-88
2023/09/13 01:40:06;;;;;;;5.60;3.40;;;;;;;17.95;100.00;101190.63;4994198;28;20026;-88
2023/09/13 01:42:32;;;;;;;4.68;3.15;;;;;;;17.93;100.00;101197.72;4993823;28;20026;-87
2023/09/13 01:44:59;;;;;;;3.75;2.80;;;;;;;17.93;100.00;101200.34;4993845;28;20062;-88
2023/09/13 01:47:29;;;;;;;3.58;2.50;;;;;;;17.93;100.00;101198.53;4993368;28;20027;-87
2023/09/13 01:49:56;;;;;;;5.10;2.83;;;;;;;17.91;100.00;101206.50;4990812;28;20038;-87
2023/09/13 01:52:22;;;;;;;;;;;;;;;17.89;100.00;101220.63;4985811;28;20038;-87
2023/09/13 01:54:59;;;;;;;5.30;3.30;;;;;;;17.82;100.00;101212.13;4994425;28;20021;-88
2023/09/13 01:57:25;;;;;;;4.45;2.85;;;;;;;17.81;100.00;101215.66;4988986;28;20038;-88
2023/09/13 01:59:50;;;;;;;3.20;2.40;;;;;;;17.80;100.00;101215.69;4993437;28;20018;-88
2023/09/13 02:02:15;;;;;;;3.10;2.47;;;;;;;17.83;100.00;101219.09;4993949;28;20051;-87
2023/09/13 02:04:54;;;;;;;3.83;2.73;;;;;;;17.84;100.00;101217.31;4994325;28;20038;-88
2023/09/13 02:07:20;;;;;;;3.42;2.50;;;;;;;17.82;100.00;101216.50;4993568;28;20030;-89
2023/09/13 02:09:46;;;;;;;5.22;3.30;;;;;;;17.84;100.00;101222.56;4993754;28;20034;-87
2023/09/13 02:12:12;;;;;;;5.00;2.90;;;;;;;17.82;100.00;101224.38;4993284;28;20030;-88
2023/09/13 02:14:39;;;;;;;4.60;3.20;;;;;;;17.78;100.00;101228.06;4993640;28;20363;-88
2023/09/13 02:17:06;;;;;;;4.03;2.60;;;;;;;17.80;100.00;101234.06;4993715;28;20080;-88
2023/09/13 02:19:31;;;;;;;3.10;2.47;;;;;;;17.78;100.00;101238.56;4994300;28;20391;-88
2023/09/13 02:21:57;;;;;;;3.67;2.47;;;;;;;17.73;100.00;101229.09;4993415;28;20022;-88
2023/09/13 02:24:22;;;;;;;2.67;2.17;;;;;;;17.73;100.00;101236.13;4993352;28;20482;-88
2023/09/13 02:26:48;;;;;;;2.20;1.90;;;;;;;17.70;100.00;101239.69;4993744;28;20243;-88
2023/09/13 02:29:13;;;;;;;3.13;2.30;;;;;;;17.69;100.00;101232.72;4993099;28;20022;-88
2023/09/13 02:31:39;;;;;;;3.60;2.37;;;;;;;17.68;100.00;101235.44;4993678;28;20038;-88
2023/09/13 02:34:06;;;;;;;3.83;2.23;;;;;;;17.68;100.00;101240.69;4993323;28;20027;-88
2023/09/13 02:36:31;;;;;;;4.95;2.97;;;;;;;17.67;100.00;101244.22;4992503;28;20030;-88
2023/09/13 02:38:59;;;;;;;5.43;3.20;;;;;;;17.63;100.00;101238.22;4993951;28;20040;-88
2023/09/13 02:41:24;;;;;;;5.05;3.13;;;;;;;17.60;100.00;101236.59;4993125;28;20034;-88
2023/09/13 02:43:52;;;;;;;4.23;2.80;;;;;;;17.64;100.00;101246.94;4993691;28;20033;-88
2023/09/13 02:46:17;;;;;;;3.65;2.40;;;;;;;17.63;100.00;101248.72;4993387;28;20022;-88
2023/09/13 02:48:43;;;;;;;2.50;2.20;;;;;;;17.63;100.00;101247.84;4993368;28;20034;-88
2023/09/13 02:51:13;;;;;;;4.97;3.07;;;;;;;17.54;100.00;101230.72;4993638;28;20061;-87
2023/09/13 02:53:38;;;;;;;4.85;2.80;;;;;;;17.62;100.00;101238.31;4993692;28;20398;-87
2023/09/13 02:56:05;;;;;;;15.33;6.90;;;;;;;17.60;100.00;101240.97;4992758;28;20033;-87
2023/09/13 02:58:30;;;;;;;;;;;;;;;17.56;100.00;101244.66;4993809;28;20053;-88
2023/09/13 03:01:10;;;;;;;14.30;6.80;;;;;;;17.55;100.00;101245.56;4993172;28;19968;-88
2023/09/13 03:03:35;;;;;;;11.32;5.43;;;;;;;17.48;100.00;101241.44;4992928;28;20048;-89
2023/09/13 03:06:18;;;;;;;9.70;4.83;;;;;;;17.58;100.00;101253.28;4993309;28;20457;-88
2023/09/13 03:08:43;;;;;;;6.70;3.85;;;;;;;17.58;100.00;101259.41;4993488;28;20022;-88
2023/09/13 03:11:16;;;;;;;6.40;3.80;;;;;;;17.55;100.00;101251.66;4992739;28;20129;-88
2023/09/13 03:13:42;;;;;;;9.50;4.57;;;;;;;17.56;100.00;101257.75;4993471;28;20042;-88
2023/09/13 03:16:12;;;;;;;7.68;4.38;;;;;;;17.59;100.00;101257.63;4993241;28;20463;-88
2023/09/13 03:18:37;;;;;;;7.78;4.20;;;;;;;17.62;100.00;101261.94;4992931;28;20156;-89
2023/09/13 03:21:06;;;;;;;15.73;7.30;;;;;;;17.59;100.00;101260.25;4992792;28;20113;-87
2023/09/13 03:23:33;;;;;;;11.73;5.68;;;;;;;17.60;100.00;101262.84;4993012;28;20050;-87
2023/09/13 03:25:58;;;;;;;;;;;;;;;17.63;100.00;101259.22;4996630;28;20034;-88
2023/09/13 03:28:23;;;;;;;9.47;4.83;;;;;;;17.64;100.00;101260.94;4997032;28;20255;-88
2023/09/13 03:30:48;;;;;;;13.57;6.17;;;;;;;17.63;100.00;101261.84;4996531;28;20026;-88
2023/09/13 03:33:14;;;;;;;19.80;9.27;;;;;;;17.63;100.00;101259.22;4996657;28;20030;-88
2023/09/13 03:35:39;;;;;;;14.03;6.80;;;;;;;17.61;100.00;101258.44;4997108;28;20033;-89
2023/09/13 03:38:04;;;;;;;10.97;5.70;;;;;;;17.62;100.00;101254.91;4995529;28;20061;-87
2023/09/13 03:40:31;;;;;;;10.03;5.23;;;;;;;17.59;100.00;101266.38;4996534;28;20058;-89
2023/09/13 03:42:56;;;;;;;14.40;6.68;;;;;;;17.53;100.00;101256.09;4997161;28;20106;-88
2023/09/13 03:45:21;;;;;;;14.17;6.37;;;;;;;17.60;100.00;101267.22;4995808;28;20150;-87
2023/09/13 03:47:46;;;;;;;14.07;6.47;;;;;;;17.59;100.00;101268.13;4996318;28;20113;-88
2023/09/13 03:50:13;;;;;;;16.87;7.50;;;;;;;17.55;100.00;101266.56;4996547;28;20026;-88
2023/09/13 03:52:39;;;;;;;14.40;6.35;;;;;;;17.58;100.00;101275.16;4995845;28;20042;-87
2023/09/13 03:55:07;;;;;;;16.50;7.30;;;;;;;17.57;100.00;101267.31;4995853;28;20069;-88
2023/09/13 03:57:35;;;;;;;11.33;5.83;;;;;;;17.54;100.00;101262.22;4996132;28;20053;-88
2023/09/13 04:00:00;;;;;;;10.88;5.53;;;;;;;17.59;100.00;101276.00;4995864;28;20463;-88
2023/09/13 04:02:26;;;;;;;8.20;4.60;;;;;;;17.55;100.00;101258.69;4996179;28;20037;-88
2023/09/13 04:04:51;;;;;;;7.00;3.87;;;;;;;17.55;100.00;101267.38;4996376;28;20383;-88
2023/09/13 04:07:16;;;;;;;7.10;3.70;;;;;;;17.56;100.00;101263.00;4995069;28;20034;-88
2023/09/13 04:09:42;;;;;;;4.67;3.00;;;;;;;17.58;100.00;101258.53;4995937;28;20439;-88
2023/09/13 04:12:07;;;;;;;4.53;2.80;;;;;;;17.60;100.00;101262.84;4995626;28;20561;-87
2023/09/13 04:14:33;;;;;;;4.13;2.70;;;;;;;17.62;100.00;101261.94;4995926;28;20081;-88
2023/09/13 04:16:58;;;;;;;3.87;2.70;;;;;;;17.58;100.00;101264.66;4995866;28;20030;-88
2023/09/13 04:19:23;;;;;;;13.97;6.07;;;;;;;17.59;100.00;101266.38;4995689;28;20479;-88
2023/09/13 04:21:50;;;;;;;11.17;5.03;;;;;;;17.58;100.00;101261.16;4996196;28;20030;-89
2023/09/13 04:24:15;;;;;;;9.57;4.70;;;;;;;17.59;100.00;101265.50;4998418;28;20113;-87
2023/09/13 04:26:40;;;;;;;17.30;7.27;;;;;;;17.61;100.00;101266.31;4995984;28;20118;-87
2023/09/13 04:29:06;;;;;;;13.00;5.97;;;;;;;17.60;100.00;101272.47;4994693;28;20475;-87
2023/09/13 04:31:31;;;;;;;12.97;6.30;;;;;;;17.61;100.00;101276.81;4995184;28;20047;-87
2023/09/13 04:33:56;;;;;;;9.43;4.80;;;;;;;17.57;100.00;101272.56;4994582;28;20076;-88
2023/09/13 04:36:23;;;;;;;10.77;5.20;;;;;;;17.57;100.00;101267.31;4994013;28;20034;-88
2023/09/13 04:38:49;;;;;;;10.70;5.07;;;;;;;17.58;100.00;101271.66;4995319;28;20105;-87
2023/09/13 04:41:15;;;;;;;12.70;5.53;;;;;;;17.56;100.00;101276.13;4995083;28;20850;-88
2023/09/13 04:43:41;;;;;;;22.52;11.43;;;;;;;17.51;100.00;101273.66;4995361;28;20405;-88
2023/09/13 04:46:07;;;;;;;18.65;8.77;;;;;;;17.55;100.00;101274.41;4995223;28;20034;-87
2023/09/13 04:48:33;;;;;;;14.80;6.93;;;;;;;17.52;100.00;101278.00;4994705;28;20042;-89
2023/09/13 04:50:58;;;;;;;16.60;8.02;;;;;;;17.52;100.00;101269.28;4995395;28;20022;-88
2023/09/13 04:53:25;;;;;;;16.23;7.67;;;;;;;17.50;100.00;101263.22;4994775;28;20053;-88
2023/09/13 04:55:50;;;;;;;13.95;6.53;;;;;;;17.52;100.00;101282.41;4994682;28;20037;-88
2023/09/13 04:58:15;;;;;;;10.73;5.10;;;;;;;17.49;100.00;101272.00;4994360;28;20030;-87
2023/09/13 05:00:40;;;;;;;14.50;7.13;;;;;;;17.48;100.00;101275.53;4995289;28;20026;-88
2023/09/13 05:03:06;;;;;;;13.33;6.43;;;;;;;17.46;100.00;101280.88;4994648;28;20053;-87
2023/09/13 05:05:33;;;;;;;12.63;6.13;;;;;;;17.48;100.00;101278.16;4995077;28;20109;-88
2023/09/13 05:07:59;;;;;;;13.07;6.30;;;;;;;17.47;100.00;101282.56;4995038;28;20513;-89
2023/09/13 05:10:25;;;;;;;15.80;7.07;;;;;;;17.47;100.00;101289.56;4994359;28;20113;-88
2023/09/13 05:12:50;;;;;;;11.77;5.77;;;;;;;17.48;100.00;101293.91;4995023;28;20464;-88
2023/09/13 05:15:15;;;;;;;15.07;6.83;;;;;;;17.47;100.00;101293.06;4994833;28;20442;-88
2023/09/13 05:17:41;;;;;;;17.37;7.80;;;;;;;17.45;100.00;101298.34;4994185;28;20419;-88
2023/09/13 05:20:07;;;;;;;13.73;6.77;;;;;;;17.47;100.00;101289.56;4994626;28;20038;-88
2023/09/13 05:22:33;;;;;;;11.05;5.63;;;;;;;17.50;100.00;101292.97;4987857;28;20035;-88
2023/09/13 05:25:00;;;;;;;14.30;6.90;;;;;;;17.49;100.00;101290.38;4974738;28;20471;-89
2023/09/13 05:27:26;;;;;;;13.07;6.00;;;;;;;17.47;100.00;101281.69;4975457;28;20030;-88
2023/09/13 05:29:52;;;;;;;13.95;6.57;;;;;;;17.50;100.00;101286.84;4975470;28;20023;-89
2023/09/13 05:32:18;;;;;;;14.15;6.50;;;;;;;17.48;100.00;101283.41;4974924;28;20034;-88
2023/09/13 05:34:43;;;;;;;16.40;7.60;;;;;;;17.47;100.00;101284.31;4975708;28;20086;-89
2023/09/13 05:37:08;;;;;;;13.67;6.60;;;;;;;17.43;100.00;101297.59;4974822;28;20021;-87
2023/09/13 05:39:34;;;;;;;14.40;6.87;;;;;;;17.43;100.00;101294.09;4974723;28;20439;-89
2023/09/13 05:42:03;;;;;;;10.93;5.30;;;;;;;17.42;100.00;101298.50;4975404;28;20023;-88
2023/09/13 05:44:30;;;;;;;11.85;5.95;;;;;;;17.43;100.00;101302.81;4975135;28;20037;-92
2023/09/13 05:46:56;;;;;;;15.68;7.25;;;;;;;17.36;100.00;101292.63;4989577;28;20034;-88
2023/09/13 05:49:21;;;;;;;12.83;6.13;;;;;;;17.44;100.00;101304.53;4993652;28;20895;-88
2023/09/13 05:51:46;;;;;;;9.40;4.93;;;;;;;17.45;100.00;101316.72;4993806;28;20030;-87
2023/09/13 05:54:12;;;;;;;6.93;4.23;;;;;;;17.51;100.00;101317.41;4994535;28;20523;-87
2023/09/13 05:56:40;;;;;;;13.07;6.50;;;;;;;17.51;100.00;101318.25;4994648;28;20476;-88
2023/09/13 05:59:05;;;;;;;15.18;7.15;;;;;;;17.53;100.00;101323.47;4994434;28;20428;-88
2023/09/13 06:01:31;;;;;;;11.83;6.00;;;;;;;17.57;100.00;101333.81;4994359;28;20113;-88
2023/09/13 06:03:56;;;;;;;15.03;6.93;;;;;;;17.57;100.00;101328.56;4994152;28;20038;-88
2023/09/13 06:06:21;;;;;;;13.83;6.57;;;;;;;17.62;100.00;101331.00;4993527;28;20517;-88
2023/09/13 06:08:47;;;;;;;14.53;6.60;;;;;;;17.63;100.00;101332.72;4994415;28;20081;-88
2023/09/13 06:11:12;;;;;;;12.87;6.20;;;;;;;17.62;100.00;101336.25;4994138;28;20050;-88
2023/09/13 06:13:37;;;;;;;8.77;4.70;;;;;;;17.64;100.00;101337.06;4994190;28;20029;-87
2023/09/13 06:16:03;;;;;;;12.27;6.00;;;;;;;17.62;100.00;101340.66;4993862;28;20125;-88
2023/09/13 06:18:28;;;;;;;12.67;6.07;;;;;;;17.60;100.00;101336.31;4994210;28;20033;-88
2023/09/13 06:20:54;;;;;;;8.80;4.80;;;;;;;17.63;100.00;101348.47;4993699;28;20479;-85
2023/09/13 06:23:34;;;;;;;11.32;5.68;;;;;;;17.65;100.00;101351.91;4992935;28;20030;-86
2023/09/13 06:25:59;;;;;;;8.68;4.65;;;;;;;17.67;100.00;101363.19;4993705;28;20117;-87
2023/09/13 06:28:25;;;;;;;8.00;4.07;;;;;;;17.69;100.00;101358.72;4992975;28;20442;-87
2023/09/13 06:30:50;;;;;;;10.60;5.20;;;;;;;17.73;100.00;101370.00;4993817;28;20085;-86
2023/09/13 06:33:16;;;;;;;8.70;4.30;;;;;;;17.73;100.00;101375.25;4992727;28;20030;-88
2023/09/13 06:35:41;;;;;;;5.00;3.30;;;;;;;17.73;100.00;101370.00;4992417;28;20483;-87
2023/09/13 06:38:06;;;;;;;6.90;3.60;;;;;;;17.75;100.00;101378.63;4993299;28;20460;-89
2023/09/13 06:40:33;;;;;;;4.27;3.03;;;;;;;17.78;100.00;101380.31;4992626;28;20097;-84
2023/09/13 06:43:09;;;;;;;7.43;4.15;;;;;;;17.73;100.00;101372.63;4992805;28;20018;-85
2023/09/13 06:45:34;;;;;;;6.72;3.72;;;;;;;17.78;100.00;101380.31;4992925;28;20070;-86
2023/09/13 06:48:00;;;;;;;9.80;5.13;;;;;;;17.79;100.00;101387.28;4992613;28;20057;-86
2023/09/13 06:50:25;;;;;;;8.77;5.00;;;;;;;17.82;100.00;101384.53;4992830;28;20026;-85
2023/09/13 06:52:50;;;;;;;11.03;5.10;;;;;;;17.83;100.00;101386.25;4992702;28;20129;-86
2023/09/13 06:55:16;;;;;;;7.90;4.30;;;;;;;17.86;100.00;101381.72;4991935;28;20019;-87
2023/09/13 06:57:43;;;;;;;9.40;5.20;;;;;;;17.91;100.00;101385.03;4993720;28;20444;-87
2023/09/13 07:00:10;;;;;;;6.20;3.88;;;;;;;17.96;100.00;101391.91;4996040;28;20026;-90
2023/09/13 07:02:35;;;;;;;5.95;3.60;;;;;;;18.04;100.00;101392.50;4996470;28;20089;-88
2023/09/13 07:05:03;;;;;;;5.13;3.33;;;;;;;18.10;100.00;101397.50;4991167;28;20118;-88
2023/09/13 07:07:31;;;;;;;5.55;3.45;;;;;;;18.09;100.00;101401.03;4983689;28;20034;-87
2023/09/13 07:09:59;;;;;;;4.43;2.95;;;;;;;18.22;100.00;101404.06;4993018;28;20097;-87
2023/09/13 07:12:25;;;;;;;6.88;3.80;;;;;;;18.26;100.00;101389.03;4979582;28;20030;-89
2023/09/13 07:14:50;;;;;;;5.90;3.28;;;;;;;18.41;100.00;101404.19;4977759;28;20053;-89
2023/09/13 07:17:18;;;;;;;9.57;4.43;;;;;;;18.48;100.00;101396.91;4976518;28;20059;-77
2023/09/13 07:19:43;;;;;;;8.68;4.68;;;;;;;18.56;100.00;101401.88;4977660;28;20039;-86
2023/09/13 07:22:09;;;;;;;19.25;8.82;;;;;;;18.61;100.00;101405.19;4977276;28;20069;-94
2023/09/13 07:24:34;;;;;;;15.17;7.57;;;;;;;18.63;100.00;101409.47;4978354;28;20452;-92
2023/09/13 07:27:00;;;;;;;14.93;7.17;;;;;;;18.65;100.00;101412.91;4978302;28;20487;-93
2023/09/13 07:29:26;;;;;;;15.23;7.57;;;;;;;18.65;100.00;101412.03;4989872;28;20023;-92
2023/09/13 07:31:51;;;;;;;16.33;7.83;;;;;;;18.57;100.00;101404.47;4988199;28;20509;-92
2023/09/13 07:34:32;;;;;;;10.90;5.77;;;;;;;18.61;100.00;101416.56;4983502;28;20029;-93
2023/09/13 07:36:58;;;;;;;8.23;4.72;;;;;;;18.65;100.00;101417.28;4981344;28;20023;-89
2023/09/13 07:39:23;;;;;;;10.13;5.50;;;;;;;18.64;100.00;101426.06;4992868;28;20384;-85
2023/09/13 07:41:49;;;;;;;6.67;4.10;;;;;;;18.57;100.00;101433.38;4991111;28;20101;-80
2023/09/13 07:44:15;;;;;;;24.17;13.50;;;;;;;18.45;100.00;101460.13;4996213;28;20149;-89
2023/09/13 07:46:40;;;;;;;20.55;11.05;;;;;;;18.11;100.00;101453.53;4986723;28;20471;-80
2023/09/13 07:49:06;;;;;;;17.60;8.10;;;;;;;17.86;100.00;101459.66;4988542;28;20134;-84
2023/09/13 07:51:31;;;;;;;12.63;6.30;;;;;;;17.64;100.00;101462.16;4973048;28;20383;-84
2023/09/13 07:54:03;;;;;;;10.90;4.90;;;;;;;17.54;100.00;101467.75;4991685;28;20125;-83
2023/09/13 07:56:29;;;;;;;7.40;4.10;;;;;;;17.44;100.00;101474.22;4991704;28;20493;-85
2023/09/13 07:58:54;;;;;;;5.40;3.67;;;;;;;17.37;100.00;101484.06;4989036;28;20026;-86
2023/09/13 08:01:19;;;;;;;4.10;2.70;;;;;;;17.35;100.00;101495.53;4988832;28;20018;-87
2023/09/13 08:03:45;;;;;;;4.23;2.30;;;;;;;17.19;100.00;101488.16;4992193;28;20033;-85
2023/09/13 08:06:10;;;;;;;2.70;1.80;;;;;;;17.16;100.00;101498.78;4990774;28;20412;-85
2023/09/13 08:08:35;;;;;;;1.67;1.57;;;;;;;17.18;100.00;101507.41;4988650;28;20027;-86
2023/09/13 08:11:01;;;;;;;1.43;1.33;;;;;;;17.17;100.00;101502.22;4987295;28;20026;-88
2023/09/13 08:13:26;;;;;;;1.30;1.20;;;;;;;17.20;100.00;101512.63;4980900;28;20034;-89
2023/09/13 08:15:52;;;;;;;1.33;1.10;;;;;;;17.12;100.00;101511.09;4996215;28;20038;-89
2023/09/13 08:18:18;;;;;;;1.45;1.30;;;;;;;17.04;100.00;101518.34;4983108;28;20038;-87
2023/09/13 08:20:43;;;;;;;1.93;1.20;;;;;;;17.05;100.00;101522.69;4991599;28;20066;-88
2023/09/13 08:23:09;;;;;;;1.77;1.17;;;;;;;17.03;100.00;101524.50;4979387;28;20093;-86
2023/09/13 08:25:34;;;;;;;1.13;1.00;;;;;;;17.04;100.00;101533.25;4988285;28;20110;-87
2023/09/13 08:27:59;;;;;;;1.13;1.07;;;;;;;16.98;100.00;101545.63;4984474;28;20386;-91
2023/09/13 08:30:25;;;;;;;1.27;1.13;;;;;;;16.91;100.00;101549.31;4995458;28;20033;-88
2023/09/13 08:32:50;;;;;;;0.93;0.93;;;;;;;16.92;100.00;101555.41;4979147;28;20034;-87
2023/09/13 08:35:16;;;;;;;1.10;1.00;;;;;;;16.92;100.00;101553.66;4989936;28;20030;-86
2023/09/13 08:37:41;;;;;;;1.43;1.33;;;;;;;16.73;100.00;101563.84;4983514;28;20026;-89
2023/09/13 08:40:18;;;;;;;1.37;1.00;;;;;;;16.82;100.00;101557.47;4994683;28;20018;-87
2023/09/13 08:42:45;;;;;;;0.90;0.90;;;;;;;16.71;100.00;101556.94;4979356;28;20451;-85
2023/09/13 08:45:12;;;;;;;;;;;;;;;16.85;100.00;101567.84;4991236;28;20141;-88
2023/09/13 08:47:42;;;;;;;1.10;1.00;;;;;;;16.73;100.00;101576.06;4987788;28;20281;-87
2023/09/13 08:50:23;;;;;;;1.30;0.93;;;;;;;16.70;100.00;101582.28;4984944;28;20034;-87
2023/09/13 08:52:50;;;;;;;1.27;1.05;;;;;;;16.75;100.00;101598.75;4985011;28;20069;-89
2023/09/13 08:55:16;;;;;;;1.60;0.85;;;;;;;16.69;100.00;101588.41;4991536;28;20022;-90
2023/09/13 08:57:42;;;;;;;0.68;0.68;;;;;;;16.82;100.00;101600.25;4992545;28;20303;-91
2023/09/13 09:00:12;;;;;;;1.77;1.23;;;;;;;16.86;100.00;101615.91;4995013;28;20037;-85
2023/09/13 09:02:40;;;;;;;0.70;0.70;;;;;;;16.86;100.00;101621.16;4994981;28;20030;-89
2023/09/13 09:05:11;;;;;;;1.02;1.00;;;;;;;16.87;100.00;101628.97;4994000;28;20022;-88
2023/09/13 09:07:38;;;;;;;1.35;1.20;;;;;;;16.76;100.00;101629.28;4993938;28;20039;-85
2023/09/13 09:10:11;;;;;;;3.50;1.45;;;;;;;16.76;100.00;101631.91;4988197;28;20475;-87
2023/09/13 09:12:40;;;;;;;1.10;1.00;;;;;;;16.78;100.00;101637.94;4984124;28;20267;-86
2023/09/13 09:15:08;;;;;;;0.80;0.80;;;;;;;16.81;100.00;101637.03;4980411;28;20035;-86
2023/09/13 09:17:35;;;;;;;0.98;0.80;;;;;;;16.86;100.00;101645.59;4990533;28;20042;-85
2023/09/13 09:20:01;;;;;;;2.00;0.73;;;;;;;16.82;100.00;101643.97;4992899;28;20555;-86
2023/09/13 09:22:29;;;;;;;1.30;1.20;;;;;;;16.70;99.72;101657.44;4984276;28;20023;-84
2023/09/13 09:24:57;;;;;;;1.88;1.23;;;;;;;16.60;99.83;101659.44;4982012;28;20037;-85
2023/09/13 09:27:22;;;;;;;1.92;1.20;;;;;;;16.54;100.00;101657.84;4990187;28;20026;-86
2023/09/13 09:29:59;;;;;;;1.00;0.80;;;;;;;16.65;100.00;101668.91;4979132;28;20030;-88
2023/09/13 09:32:27;;;;;;;1.48;1.10;;;;;;;16.68;99.56;101668.81;4993415;28;20471;-87
2023/09/13 09:34:55;;;;;;;1.30;1.20;;;;;;;16.71;100.00;101675.72;4992750;28;20455;-88
2023/09/13 09:37:29;;;;;;;2.15;0.95;;;;;;;16.76;100.00;101680.84;4993380;28;20034;-88
2023/09/13 09:39:54;;;;;;;1.17;0.90;;;;;;;16.81;98.92;101678.97;4981002;28;20051;-87
2023/09/13 09:42:20;;;;;;;1.00;0.93;;;;;;;16.85;100.00;101679.72;4994180;28;20490;-89
2023/09/13 09:44:46;;;;;;;1.40;1.00;;;;;;;16.83;100.00;101662.28;4982043;28;20034;-88
2023/09/13 09:47:38;;;;;;;0.98;0.88;;;;;;;17.01;100.00;101667.06;4974860;28;20023;-93
2023/09/13 09:50:18;;;;;;;1.17;0.85;;;;;;;17.16;99.63;101673.63;4974902;28;20475;-91
2023/09/13 09:52:51;;;;;;;1.60;1.20;;;;;;;17.23;97.36;101681.25;4989065;28;20054;-87
2023/09/13 09:55:28;;;;;;;2.30;1.42;;;;;;;17.21;96.72;101676.97;4994102;28;20034;-87
2023/09/13 09:57:54;;;;;;;1.13;1.00;;;;;;;17.17;97.16;101665.69;4993236;28;20029;-87
2023/09/13 10:00:22;;;;;;;1.50;1.40;;;;;;;17.19;93.64;101682.25;4993304;28;20045;-87
2023/09/13 10:02:48;;;;;;;3.15;1.60;;;;;;;17.12;93.31;101688.59;4993682;28;20022;-87
2023/09/13 10:05:16;;;;;;;2.40;1.35;;;;;;;17.26;95.97;101680.31;4992821;28;20030;-87
2023/09/13 10:07:58;;;;;;;1.27;1.17;;;;;;;17.33;93.27;101694.09;4993781;28;20022;-88
2023/09/13 10:10:33;;;;;;;1.95;1.40;;;;;;;17.50;96.30;101690.97;4974114;28;20026;-87
2023/09/13 10:12:58;;;;;;;2.42;1.20;;;;;;;17.63;94.82;101700.19;4973502;28;20031;-87
2023/09/13 10:15:25;;;;;;;1.53;1.30;;;;;;;17.78;91.23;101708.50;4974176;28;20380;-87
2023/09/13 10:17:53;;;;;;;1.73;1.25;;;;;;;17.86;92.13;101706.47;4974274;28;20023;-86
2023/09/13 10:20:20;;;;;;;1.17;1.08;;;;;;;17.85;92.11;101702.13;4972830;28;20026;-84
2023/09/13 10:22:46;;;;;;;1.92;1.17;;;;;;;17.85;91.62;101710.00;4974300;28;20058;-89
2023/09/13 10:25:15;;;;;;;1.30;1.20;;;;;;;17.94;93.18;101704.44;4989242;28;20181;-88
2023/09/13 10:27:46;;;;;;;1.60;1.35;;;;;;;17.96;91.36;101702.63;4993739;28;20463;-88
2023/09/13 10:30:14;;;;;;;1.40;1.30;;;;;;;18.10;92.70;101704.81;4993614;28;20153;-89
2023/09/13 10:32:46;;;;;;;1.30;1.20;;;;;;;18.33;88.20;101724.22;4992460;28;20113;-90
2023/09/13 10:35:12;;;;;;;1.85;1.08;;;;;;;18.46;92.41;101727.31;4992592;28;20097;-88
2023/09/13 10:37:56;;;;;;;1.50;1.30;;;;;;;18.70;86.28;101736.09;4994228;28;20052;-82
2023/09/13 10:40:33;;;;;;;1.55;1.45;;;;;;;18.65;88.58;101733.63;4992482;28;20093;-88
2023/09/13 10:42:59;;;;;;;1.75;1.52;;;;;;;18.63;85.84;101737.22;4993724;28;20081;-87
2023/09/13 10:45:24;;;;;;;1.90;1.27;;;;;;;18.66;88.48;101742.34;4993057;28;20391;-89
2023/09/13 10:47:51;;;;;;;1.27;1.13;;;;;;;18.83;90.35;101749.66;4992609;28;20105;-88
2023/09/13 10:50:18;;;;;;;1.08;0.98;;;;;;;19.04;86.93;101748.06;4992553;28;20197;-87
2023/09/13 10:52:44;;;;;;;0.82;0.82;;;;;;;18.98;86.03;101748.28;4993020;28;20129;-86
2023/09/13 10:55:11;;;;;;;1.03;0.97;;;;;;;18.98;85.56;101759.66;4992278;28;20101;-87
2023/09/13 10:57:39;;;;;;;0.80;0.77;;;;;;;18.95;85.20;101756.28;4993319;28;20025;-87
2023/09/13 11:00:11;;;;;;;0.60;0.60;;;;;;;18.96;85.65;101753.59;4992685;28;20097;-87
2023/09/13 11:02:42;;;;;;;0.90;0.85;;;;;;;19.09;87.76;101767.16;4992411;28;20054;-87
2023/09/13 11:05:09;;;;;;;0.93;0.88;;;;;;;19.12;83.98;101763.56;4992945;28;20108;-88
2023/09/13 11:07:43;;;;;;;0.90;0.90;;;;;;;19.08;82.55;101767.22;4993165;28;20030;-87
2023/09/13 11:10:16;;;;;;;1.17;1.08;;;;;;;19.08;84.62;101764.59;4992122;28;20027;-86
2023/09/13 11:12:48;;;;;;;0.80;0.80;;;;;;;19.19;87.46;101769.47;4993101;28;20475;-81
2023/09/13 11:15:17;;;;;;;1.15;0.77;;;;;;;19.31;86.08;101773.41;4992179;28;20026;-81
2023/09/13 11:17:43;;;;;;;0.63;0.60;;;;;;;19.39;85.09;101777.47;4992893;28;20030;-83